Terminal Aerodrome Forecast
Issued by NWS Cleveland, OH

Home | Current Version | Previous Version | Graphics & Text | Print | Product List | Glossary On
Versions: 1 2 3 4 5 6 7 8 9 10 11 12 13 14 15 16 17 18 19 20 21 22 23
623
FTUS41 KCLE 250200 AAA
TAFCAK
TAF AMD
KCAK 250200Z 2502/2524 12012KT P6SM VCSH OVC015
     FM250800 13010KT P6SM -SHRA OVC015
     FM251500 16008KT 6SM -SHRA OVC007
     FM252300 26006KT 6SM -SHRA OVC007=

USA.gov is the U.S. government's official web portal to all federal, state and local government web resources and services.